sensor_id;sensor_type;location;lat;lon;timestamp;temperature;humidity
9730;DHT22;4904;49.152;11.004;2024-01-15T00:01:07;-3.50;99.90
9730;DHT22;4904;49.152;11.004;2024-01-15T00:03:33;-3.60;99.90
9730;DHT22;4904;49.152;11.004;2024-01-15T00:06:00;-3.60;99.90
9730;DHT22;4904;49.152;11.004;2024-01-15T00:08:27;-3.60;99.90
9730;DHT22;4904;49.152;11.004;2024-01-15T00:10:54;-3.70;99.90
9730;DHT22;4904;49.152;11.004;2024-01-15T00:13:21;-3.70;99.90
9730;DHT22;4904;49.152;11.004;2024-01-15T00:15:48;-3.70;99.90
9730;DHT22;4904;49.152;11.004;2024-01-15T00:18:16;-3.70;99.90
9730;DHT22;4904;49.152;11.004;2024-01-15T00:20:43;-3.10;99.90
9730;DHT22;4904;49.152;11.004;2024-01-15T00:23:10;-3.60;99.90
9730;DHT22;4904;49.152;11.004;2024-01-15T00:25:36;-3.70;99.90
9730;DHT22;4904;49.152;11.004;2024-01-15T00:28:04;-3.70;99.90
9730;DHT22;4904;49.152;11.004;2024-01-15T00:30:31;-3.70;99.90
9730;DHT22;4904;49.152;11.004;2024-01-15T00:32:58;-3.60;99.90
9730;DHT22;4904;49.152;11.004;2024-01-15T00:35:26;-3.60;99.90
9730;DHT22;4904;49.152;11.004;2024-01-15T00:37:53;-3.50;99.90
9730;DHT22;4904;49.152;11.004;2024-01-15T00:40:20;-3.50;99.90
9730;DHT22;4904;49.152;11.004;2024-01-15T00:42:47;-3.60;99.90
9730;DHT22;4904;49.152;11.004;2024-01-15T00:45:14;-3.60;99.90
9730;DHT22;4904;49.152;11.004;2024-01-15T00:47:41;-3.60;99.90
9730;DHT22;4904;49.152;11.004;2024-01-15T00:50:08;-3.50;99.90
9730;DHT22;4904;49.152;11.004;2024-01-15T00:52:36;-3.50;99.90
9730;DHT22;4904;49.152;11.004;2024-01-15T00:55:04;-3.50;99.90
9730;DHT22;4904;49.152;11.004;2024-01-15T00:57:31;-3.50;99.90
9730;DHT22;4904;49.152;11.004;2024-01-15T00:59:58;-3.50;99.90
9730;DHT22;4904;49.152;11.004;2024-01-15T01:02:26;-3.40;99.90
9730;DHT22;4904;49.152;11.004;2024-01-15T01:04:53;-3.40;99.90
9730;DHT22;4904;49.152;11.004;2024-01-15T01:07:19;-3.40;99.90
9730;DHT22;4904;49.152;11.004;2024-01-15T01:09:48;-3.40;99.90
9730;DHT22;4904;49.152;11.004;2024-01-15T01:12:16;-3.40;99.90
9730;DHT22;4904;49.152;11.004;2024-01-15T01:14:45;-3.30;99.90
9730;DHT22;4904;49.152;11.004;2024-01-15T01:17:12;-3.30;99.90
9730;DHT22;4904;49.152;11.004;2024-01-15T01:19:39;-3.30;99.90
9730;DHT22;4904;49.152;11.004;2024-01-15T01:22:05;-3.30;99.90
9730;DHT22;4904;49.152;11.004;2024-01-15T01:24:33;-3.30;99.90
9730;DHT22;4904;49.152;11.004;2024-01-15T01:27:01;-3.30;99.90
9730;DHT22;4904;49.152;11.004;2024-01-15T01:29:28;-3.30;99.90
9730;DHT22;4904;49.152;11.004;2024-01-15T01:31:55;-3.20;99.90
9730;DHT22;4904;49.152;11.004;2024-01-15T01:34:22;-3.20;99.90
9730;DHT22;4904;49.152;11.004;2024-01-15T01:36:49;-3.10;99.90
9730;DHT22;4904;49.152;11.004;2024-01-15T01:39:16;-3.10;99.90
9730;DHT22;4904;49.152;11.004;2024-01-15T01:41:43;-3.00;99.90
9730;DHT22;4904;49.152;11.004;2024-01-15T01:44:12;-3.00;99.90
9730;DHT22;4904;49.152;11.004;2024-01-15T01:46:39;-3.00;99.90
9730;DHT22;4904;49.152;11.004;2024-01-15T01:49:06;-3.10;99.90
9730;DHT22;4904;49.152;11.004;2024-01-15T01:51:34;-3.00;99.90
9730;DHT22;4904;49.152;11.004;2024-01-15T01:54:03;-3.00;99.90
9730;DHT22;4904;49.152;11.004;2024-01-15T01:56:31;-3.00;99.90
9730;DHT22;4904;49.152;11.004;2024-01-15T01:58:58;-2.90;99.90
9730;DHT22;4904;49.152;11.004;2024-01-15T02:01:26;-2.90;99.90
9730;DHT22;4904;49.152;11.004;2024-01-15T02:03:53;-2.80;99.90
9730;DHT22;4904;49.152;11.004;2024-01-15T02:06:22;-2.80;99.90
9730;DHT22;4904;49.152;11.004;2024-01-15T02:08:50;-2.80;99.90
9730;DHT22;4904;49.152;11.004;2024-01-15T02:11:17;-2.80;99.90
9730;DHT22;4904;49.152;11.004;2024-01-15T02:13:44;-2.80;99.90
9730;DHT22;4904;49.152;11.004;2024-01-15T02:16:11;-2.70;99.90
9730;DHT22;4904;49.152;11.004;2024-01-15T02:18:43;-2.70;99.90
9730;DHT22;4904;49.152;11.004;2024-01-15T02:21:10;-2.70;99.90
9730;DHT22;4904;49.152;11.004;2024-01-15T02:23:39;-2.70;99.90
9730;DHT22;4904;49.152;11.004;2024-01-15T02:26:06;-2.70;99.90
9730;DHT22;4904;49.152;11.004;2024-01-15T02:28:34;-2.60;99.90
9730;DHT22;4904;49.152;11.004;2024-01-15T02:31:01;-2.60;99.90
9730;DHT22;4904;49.152;11.004;2024-01-15T02:33:28;-2.50;99.90
9730;DHT22;4904;49.152;11.004;2024-01-15T02:35:55;-2.50;99.90
9730;DHT22;4904;49.152;11.004;2024-01-15T02:38:22;-2.50;99.90
9730;DHT22;4904;49.152;11.004;2024-01-15T02:40:50;-2.60;99.90
9730;DHT22;4904;49.152;11.004;2024-01-15T02:43:17;-2.50;99.90
9730;DHT22;4904;49.152;11.004;2024-01-15T02:45:45;-2.50;99.90
9730;DHT22;4904;49.152;11.004;2024-01-15T02:48:12;-2.50;99.90
9730;DHT22;4904;49.152;11.004;2024-01-15T02:50:39;-2.50;99.90
9730;DHT22;4904;49.152;11.004;2024-01-15T02:53:06;-2.50;99.90
9730;DHT22;4904;49.152;11.004;2024-01-15T02:55:33;-2.40;99.90
9730;DHT22;4904;49.152;11.004;2024-01-15T02:58:01;-2.40;99.90
9730;DHT22;4904;49.152;11.004;2024-01-15T03:00:28;-2.10;99.90
9730;DHT22;4904;49.152;11.004;2024-01-15T03:02:56;-2.40;99.90
9730;DHT22;4904;49.152;11.004;2024-01-15T03:05:22;-2.40;99.90
9730;DHT22;4904;49.152;11.004;2024-01-15T03:07:49;-2.40;99.90
9730;DHT22;4904;49.152;11.004;2024-01-15T03:10:16;-2.40;99.90
9730;DHT22;4904;49.152;11.004;2024-01-15T03:12:43;-2.40;99.90
9730;DHT22;4904;49.152;11.004;2024-01-15T03:15:11;-2.40;99.90
9730;DHT22;4904;49.152;11.004;2024-01-15T03:17:38;-2.40;99.90
9730;DHT22;4904;49.152;11.004;2024-01-15T03:20:06;-2.30;99.90
9730;DHT22;4904;49.152;11.004;2024-01-15T03:22:33;-2.30;99.90
9730;DHT22;4904;49.152;11.004;2024-01-15T03:25:00;-2.30;99.90
9730;DHT22;4904;49.152;11.004;2024-01-15T03:27:27;-2.30;99.90
9730;DHT22;4904;49.152;11.004;2024-01-15T03:29:54;-2.20;99.90
9730;DHT22;4904;49.152;11.004;2024-01-15T03:32:22;-2.20;99.90
9730;DHT22;4904;49.152;11.004;2024-01-15T03:34:49;-2.20;99.90
9730;DHT22;4904;49.152;11.004;2024-01-15T03:37:18;-2.10;99.90
9730;DHT22;4904;49.152;11.004;2024-01-15T03:39:45;-2.10;99.90
9730;DHT22;4904;49.152;11.004;2024-01-15T03:42:11;-2.10;99.90
9730;DHT22;4904;49.152;11.004;2024-01-15T03:44:40;-2.10;99.90
9730;DHT22;4904;49.152;11.004;2024-01-15T03:47:07;-2.10;99.90
9730;DHT22;4904;49.152;11.004;2024-01-15T03:49:35;-2.10;99.90
9730;DHT22;4904;49.152;11.004;2024-01-15T03:52:03;-2.10;99.90
9730;DHT22;4904;49.152;11.004;2024-01-15T03:54:29;-2.10;99.90
9730;DHT22;4904;49.152;11.004;2024-01-15T03:56:56;-2.10;99.90
9730;DHT22;4904;49.152;11.004;2024-01-15T03:59:23;-2.00;99.90
9730;DHT22;4904;49.152;11.004;2024-01-15T04:01:50;-2.00;99.90
9730;DHT22;4904;49.152;11.004;2024-01-15T04:04:17;-2.00;99.90
9730;DHT22;4904;49.152;11.004;2024-01-15T04:06:46;-1.90;99.90
9730;DHT22;4904;49.152;11.004;2024-01-15T04:09:13;-1.90;99.90
9730;DHT22;4904;49.152;11.004;2024-01-15T04:11:40;-1.90;99.90
9730;DHT22;4904;49.152;11.004;2024-01-15T04:14:07;-1.90;99.90
9730;DHT22;4904;49.152;11.004;2024-01-15T04:16:34;-1.90;99.90
9730;DHT22;4904;49.152;11.004;2024-01-15T04:19:01;-1.80;99.90
9730;DHT22;4904;49.152;11.004;2024-01-15T04:21:28;-1.90;99.90
9730;DHT22;4904;49.152;11.004;2024-01-15T04:23:56;-1.80;99.90
9730;DHT22;4904;49.152;11.004;2024-01-15T04:26:23;-1.90;99.90
9730;DHT22;4904;49.152;11.004;2024-01-15T04:28:50;-1.90;99.90
9730;DHT22;4904;49.152;11.004;2024-01-15T04:31:23;-1.80;99.90
9730;DHT22;4904;49.152;11.004;2024-01-15T04:33:50;-1.80;99.90
9730;DHT22;4904;49.152;11.004;2024-01-15T04:36:18;-1.70;99.90
9730;DHT22;4904;49.152;11.004;2024-01-15T04:38:44;-1.70;99.90
9730;DHT22;4904;49.152;11.004;2024-01-15T04:41:13;-1.70;99.90
9730;DHT22;4904;49.152;11.004;2024-01-15T04:43:40;-1.70;99.90
9730;DHT22;4904;49.152;11.004;2024-01-15T04:46:07;-1.70;99.90
9730;DHT22;4904;49.152;11.004;2024-01-15T04:48:35;-1.70;99.90
9730;DHT22;4904;49.152;11.004;2024-01-15T04:51:04;-1.70;99.90
9730;DHT22;4904;49.152;11.004;2024-01-15T04:53:31;-1.60;99.90
9730;DHT22;4904;49.152;11.004;2024-01-15T04:55:58;-1.70;99.90
9730;DHT22;4904;49.152;11.004;2024-01-15T04:58:26;-1.70;99.90
9730;DHT22;4904;49.152;11.004;2024-01-15T05:00:53;-1.60;99.90
9730;DHT22;4904;49.152;11.004;2024-01-15T05:03:20;-1.60;99.90
9730;DHT22;4904;49.152;11.004;2024-01-15T05:05:47;-1.50;99.90
9730;DHT22;4904;49.152;11.004;2024-01-15T05:08:14;-1.50;99.90
9730;DHT22;4904;49.152;11.004;2024-01-15T05:10:41;-1.50;99.90
9730;DHT22;4904;49.152;11.004;2024-01-15T05:13:08;-1.50;99.90
9730;DHT22;4904;49.152;11.004;2024-01-15T05:15:37;-1.50;99.90
9730;DHT22;4904;49.152;11.004;2024-01-15T05:18:04;-1.40;99.90
9730;DHT22;4904;49.152;11.004;2024-01-15T05:20:31;-1.40;99.90
9730;DHT22;4904;49.152;11.004;2024-01-15T05:22:58;-1.40;99.90
9730;DHT22;4904;49.152;11.004;2024-01-15T05:25:25;-1.40;99.90
9730;DHT22;4904;49.152;11.004;2024-01-15T05:27:52;-1.40;99.90
9730;DHT22;4904;49.152;11.004;2024-01-15T05:30:19;-1.40;99.90
9730;DHT22;4904;49.152;11.004;2024-01-15T05:32:47;-1.30;99.90
9730;DHT22;4904;49.152;11.004;2024-01-15T05:35:14;-1.30;99.90
9730;DHT22;4904;49.152;11.004;2024-01-15T05:37:43;-1.30;99.90
9730;DHT22;4904;49.152;11.004;2024-01-15T05:40:11;-1.30;99.90
9730;DHT22;4904;49.152;11.004;2024-01-15T05:42:38;-1.20;99.90
9730;DHT22;4904;49.152;11.004;2024-01-15T05:45:06;-1.20;99.90
9730;DHT22;4904;49.152;11.004;2024-01-15T05:47:33;-1.20;99.90
9730;DHT22;4904;49.152;11.004;2024-01-15T05:50:02;-1.20;99.90
9730;DHT22;4904;49.152;11.004;2024-01-15T05:52:29;-1.10;99.90
9730;DHT22;4904;49.152;11.004;2024-01-15T05:54:56;-1.10;99.90
9730;DHT22;4904;49.152;11.004;2024-01-15T05:57:23;-1.10;99.90
9730;DHT22;4904;49.152;11.004;2024-01-15T05:59:50;-1.10;99.90
9730;DHT22;4904;49.152;11.004;2024-01-15T06:02:16;-1.10;99.90
9730;DHT22;4904;49.152;11.004;2024-01-15T06:04:43;-1.10;99.90
9730;DHT22;4904;49.152;11.004;2024-01-15T06:07:11;-1.10;99.90
9730;DHT22;4904;49.152;11.004;2024-01-15T06:09:38;-1.10;99.90
9730;DHT22;4904;49.152;11.004;2024-01-15T06:12:08;-1.10;99.90
9730;DHT22;4904;49.152;11.004;2024-01-15T06:14:35;-1.10;99.90
9730;DHT22;4904;49.152;11.004;2024-01-15T06:17:02;-1.10;99.90
9730;DHT22;4904;49.152;11.004;2024-01-15T06:19:29;-1.00;99.90
9730;DHT22;4904;49.152;11.004;2024-01-15T06:21:55;-1.00;99.90
9730;DHT22;4904;49.152;11.004;2024-01-15T06:24:24;-1.00;99.90
9730;DHT22;4904;49.152;11.004;2024-01-15T06:26:50;-1.00;99.90
9730;DHT22;4904;49.152;11.004;2024-01-15T06:29:18;-1.00;99.90
9730;DHT22;4904;49.152;11.004;2024-01-15T06:31:44;-1.00;99.90
9730;DHT22;4904;49.152;11.004;2024-01-15T06:34:11;-1.00;99.90
9730;DHT22;4904;49.152;11.004;2024-01-15T06:36:38;-1.00;99.90
9730;DHT22;4904;49.152;11.004;2024-01-15T06:39:05;-0.80;99.90
9730;DHT22;4904;49.152;11.004;2024-01-15T06:41:33;-1.00;99.90
9730;DHT22;4904;49.152;11.004;2024-01-15T06:44:01;-1.00;99.90
9730;DHT22;4904;49.152;11.004;2024-01-15T06:46:28;-1.00;99.90
9730;DHT22;4904;49.152;11.004;2024-01-15T06:48:55;-1.00;99.90
9730;DHT22;4904;49.152;11.004;2024-01-15T06:51:21;-1.00;99.90
9730;DHT22;4904;49.152;11.004;2024-01-15T06:53:48;-1.00;99.90
9730;DHT22;4904;49.152;11.004;2024-01-15T06:56:15;-1.00;99.90
9730;DHT22;4904;49.152;11.004;2024-01-15T06:58:43;-1.00;99.90
9730;DHT22;4904;49.152;11.004;2024-01-15T07:01:10;-1.00;99.90
9730;DHT22;4904;49.152;11.004;2024-01-15T07:03:37;-1.20;99.90
9730;DHT22;4904;49.152;11.004;2024-01-15T07:06:05;-1.20;99.90
9730;DHT22;4904;49.152;11.004;2024-01-15T07:08:32;-1.10;99.90
9730;DHT22;4904;49.152;11.004;2024-01-15T07:10:58;-1.10;99.90
9730;DHT22;4904;49.152;11.004;2024-01-15T07:13:25;-1.10;99.90
9730;DHT22;4904;49.152;11.004;2024-01-15T07:15:53;-1.10;99.90
9730;DHT22;4904;49.152;11.004;2024-01-15T07:18:20;-1.00;99.90
9730;DHT22;4904;49.152;11.004;2024-01-15T07:20:47;-1.00;99.90
9730;DHT22;4904;49.152;11.004;2024-01-15T07:23:14;-1.00;99.90
9730;DHT22;4904;49.152;11.004;2024-01-15T07:25:42;-1.00;99.90
9730;DHT22;4904;49.152;11.004;2024-01-15T07:28:09;-1.00;99.90
9730;DHT22;4904;49.152;11.004;2024-01-15T07:30:37;-1.00;99.90
9730;DHT22;4904;49.152;11.004;2024-01-15T07:33:06;-0.90;99.90
9730;DHT22;4904;49.152;11.004;2024-01-15T07:35:32;-0.90;99.90
9730;DHT22;4904;49.152;11.004;2024-01-15T07:37:59;-0.90;99.90
9730;DHT22;4904;49.152;11.004;2024-01-15T07:40:26;-0.90;99.90
9730;DHT22;4904;49.152;11.004;2024-01-15T07:42:53;-0.90;99.90
9730;DHT22;4904;49.152;11.004;2024-01-15T07:45:20;-0.80;99.90
9730;DHT22;4904;49.152;11.004;2024-01-15T07:47:47;-0.80;99.90
9730;DHT22;4904;49.152;11.004;2024-01-15T07:50:16;-0.90;99.90
9730;DHT22;4904;49.152;11.004;2024-01-15T07:52:42;-0.90;99.90
9730;DHT22;4904;49.152;11.004;2024-01-15T07:55:10;-0.90;99.90
9730;DHT22;4904;49.152;11.004;2024-01-15T07:57:37;-0.90;99.90
9730;DHT22;4904;49.152;11.004;2024-01-15T08:00:05;-0.90;99.90
9730;DHT22;4904;49.152;11.004;2024-01-15T08:02:32;-0.90;99.90
9730;DHT22;4904;49.152;11.004;2024-01-15T08:04:59;-0.80;99.90
9730;DHT22;4904;49.152;11.004;2024-01-15T08:07:29;-0.80;99.90
9730;DHT22;4904;49.152;11.004;2024-01-15T08:09:57;-0.80;99.90
9730;DHT22;4904;49.152;11.004;2024-01-15T08:12:24;-0.80;99.90
9730;DHT22;4904;49.152;11.004;2024-01-15T08:14:51;-0.70;99.90
9730;DHT22;4904;49.152;11.004;2024-01-15T08:17:18;-0.70;99.90
9730;DHT22;4904;49.152;11.004;2024-01-15T08:19:45;-0.70;99.90
9730;DHT22;4904;49.152;11.004;2024-01-15T08:22:12;-0.70;99.90
9730;DHT22;4904;49.152;11.004;2024-01-15T08:24:40;-0.60;99.90
9730;DHT22;4904;49.152;11.004;2024-01-15T08:27:07;-0.40;99.90
9730;DHT22;4904;49.152;11.004;2024-01-15T08:29:34;-0.60;99.90
9730;DHT22;4904;49.152;11.004;2024-01-15T08:32:01;-0.50;99.90
9730;DHT22;4904;49.152;11.004;2024-01-15T08:34:28;-0.50;99.90
9730;DHT22;4904;49.152;11.004;2024-01-15T08:36:55;-0.50;99.90
9730;DHT22;4904;49.152;11.004;2024-01-15T08:39:22;-0.50;99.90
9730;DHT22;4904;49.152;11.004;2024-01-15T08:41:50;-0.50;99.90
9730;DHT22;4904;49.152;11.004;2024-01-15T08:44:17;-0.50;99.90
9730;DHT22;4904;49.152;11.004;2024-01-15T08:46:43;-0.50;99.90
9730;DHT22;4904;49.152;11.004;2024-01-15T08:49:10;-0.60;99.90
9730;DHT22;4904;49.152;11.004;2024-01-15T08:51:38;-0.60;99.90
9730;DHT22;4904;49.152;11.004;2024-01-15T08:54:05;-0.60;99.90
9730;DHT22;4904;49.152;11.004;2024-01-15T08:56:33;-0.60;99.90
9730;DHT22;4904;49.152;11.004;2024-01-15T08:59:02;-0.60;99.90
9730;DHT22;4904;49.152;11.004;2024-01-15T09:01:28;-0.60;99.90
9730;DHT22;4904;49.152;11.004;2024-01-15T09:03:56;-0.50;99.90
9730;DHT22;4904;49.152;11.004;2024-01-15T09:06:23;-0.50;99.90
9730;DHT22;4904;49.152;11.004;2024-01-15T09:08:50;-0.50;99.90
9730;DHT22;4904;49.152;11.004;2024-01-15T09:11:17;-0.50;99.90
9730;DHT22;4904;49.152;11.004;2024-01-15T09:13:44;-0.50;99.90
9730;DHT22;4904;49.152;11.004;2024-01-15T09:16:12;-0.50;99.90
9730;DHT22;4904;49.152;11.004;2024-01-15T09:18:39;-0.50;99.90
9730;DHT22;4904;49.152;11.004;2024-01-15T09:21:06;-0.50;99.90
9730;DHT22;4904;49.152;11.004;2024-01-15T09:23:33;-0.40;99.90
9730;DHT22;4904;49.152;11.004;2024-01-15T09:25:59;-0.40;99.90
9730;DHT22;4904;49.152;11.004;2024-01-15T09:28:26;-0.50;99.90
9730;DHT22;4904;49.152;11.004;2024-01-15T09:30:53;-0.50;99.90
9730;DHT22;4904;49.152;11.004;2024-01-15T09:33:21;-0.40;99.90
9730;DHT22;4904;49.152;11.004;2024-01-15T09:35:48;-0.40;99.90
9730;DHT22;4904;49.152;11.004;2024-01-15T09:38:15;-0.40;99.90
9730;DHT22;4904;49.152;11.004;2024-01-15T09:40:45;-0.40;99.90
9730;DHT22;4904;49.152;11.004;2024-01-15T09:43:14;-0.40;99.90
9730;DHT22;4904;49.152;11.004;2024-01-15T09:45:42;-0.40;99.90
9730;DHT22;4904;49.152;11.004;2024-01-15T09:48:09;-0.30;99.90
9730;DHT22;4904;49.152;11.004;2024-01-15T09:50:38;-0.20;99.90
9730;DHT22;4904;49.152;11.004;2024-01-15T09:53:05;-0.40;99.90
9730;DHT22;4904;49.152;11.004;2024-01-15T09:55:32;-0.40;99.90
9730;DHT22;4904;49.152;11.004;2024-01-15T09:58:00;-0.40;99.90
9730;DHT22;4904;49.152;11.004;2024-01-15T10:00:29;-0.30;99.90
9730;DHT22;4904;49.152;11.004;2024-01-15T10:02:56;-0.30;99.90
9730;DHT22;4904;49.152;11.004;2024-01-15T10:05:23;-0.40;99.90
9730;DHT22;4904;49.152;11.004;2024-01-15T10:07:53;-0.40;99.90
9730;DHT22;4904;49.152;11.004;2024-01-15T10:10:21;-0.40;99.90
9730;DHT22;4904;49.152;11.004;2024-01-15T10:12:49;-0.30;99.90
9730;DHT22;4904;49.152;11.004;2024-01-15T10:15:16;-0.30;99.90
9730;DHT22;4904;49.152;11.004;2024-01-15T10:17:43;-0.30;99.90
9730;DHT22;4904;49.152;11.004;2024-01-15T10:20:11;-0.30;99.90
9730;DHT22;4904;49.152;11.004;2024-01-15T10:22:40;-0.30;99.90
9730;DHT22;4904;49.152;11.004;2024-01-15T10:25:12;-0.20;99.90
9730;DHT22;4904;49.152;11.004;2024-01-15T10:27:39;-0.20;99.90
9730;DHT22;4904;49.152;11.004;2024-01-15T10:30:07;-0.20;99.90
9730;DHT22;4904;49.152;11.004;2024-01-15T10:32:34;-0.20;99.90
9730;DHT22;4904;49.152;11.004;2024-01-15T10:35:01;-0.20;99.90
9730;DHT22;4904;49.152;11.004;2024-01-15T10:37:28;-0.20;99.90
9730;DHT22;4904;49.152;11.004;2024-01-15T10:40:01;-0.20;99.90
9730;DHT22;4904;49.152;11.004;2024-01-15T10:42:32;-0.10;99.90
9730;DHT22;4904;49.152;11.004;2024-01-15T10:44:59;-0.10;99.90
9730;DHT22;4904;49.152;11.004;2024-01-15T10:47:27;-0.10;99.90
9730;DHT22;4904;49.152;11.004;2024-01-15T10:49:53;-0.10;99.90
9730;DHT22;4904;49.152;11.004;2024-01-15T10:52:21;-0.10;99.90
9730;DHT22;4904;49.152;11.004;2024-01-15T10:54:49;-0.20;99.90
9730;DHT22;4904;49.152;11.004;2024-01-15T10:57:17;-0.20;99.90
9730;DHT22;4904;49.152;11.004;2024-01-15T10:59:46;-0.20;99.90
9730;DHT22;4904;49.152;11.004;2024-01-15T11:02:14;-0.20;99.90
9730;DHT22;4904;49.152;11.004;2024-01-15T11:04:41;-0.20;99.90
9730;DHT22;4904;49.152;11.004;2024-01-15T11:07:08;-0.10;99.90
9730;DHT22;4904;49.152;11.004;2024-01-15T11:09:37;-0.10;99.90
9730;DHT22;4904;49.152;11.004;2024-01-15T11:12:09;-0.10;99.90
9730;DHT22;4904;49.152;11.004;2024-01-15T11:14:39;0.00;99.90
9730;DHT22;4904;49.152;11.004;2024-01-15T11:17:10;0.10;99.90
9730;DHT22;4904;49.152;11.004;2024-01-15T11:19:39;0.20;99.90
9730;DHT22;4904;49.152;11.004;2024-01-15T11:22:09;0.20;99.90
9730;DHT22;4904;49.152;11.004;2024-01-15T11:24:38;0.20;99.90
9730;DHT22;4904;49.152;11.004;2024-01-15T11:27:06;0.30;99.90
9730;DHT22;4904;49.152;11.004;2024-01-15T11:29:34;0.20;99.90
9730;DHT22;4904;49.152;11.004;2024-01-15T11:32:03;0.10;99.90
9730;DHT22;4904;49.152;11.004;2024-01-15T11:34:51;0.20;99.90
9730;DHT22;4904;49.152;11.004;2024-01-15T11:37:19;0.10;99.90
9730;DHT22;4904;49.152;11.004;2024-01-15T11:39:46;0.10;99.90
9730;DHT22;4904;49.152;11.004;2024-01-15T11:42:13;0.10;99.90
9730;DHT22;4904;49.152;11.004;2024-01-15T11:44:41;0.00;99.90
9730;DHT22;4904;49.152;11.004;2024-01-15T11:47:09;0.00;99.90
9730;DHT22;4904;49.152;11.004;2024-01-15T11:50:00;0.00;99.90
9730;DHT22;4904;49.152;11.004;2024-01-15T11:52:32;-0.10;99.90
9730;DHT22;4904;49.152;11.004;2024-01-15T11:55:11;0.00;99.90
9730;DHT22;4904;49.152;11.004;2024-01-15T11:57:42;0.00;99.90
9730;DHT22;4904;49.152;11.004;2024-01-15T12:00:11;-0.10;99.90
9730;DHT22;4904;49.152;11.004;2024-01-15T12:02:39;-0.10;99.90
9730;DHT22;4904;49.152;11.004;2024-01-15T12:05:09;0.00;99.90
9730;DHT22;4904;49.152;11.004;2024-01-15T12:07:38;0.00;99.90
9730;DHT22;4904;49.152;11.004;2024-01-15T12:10:08;-0.20;99.90
9730;DHT22;4904;49.152;11.004;2024-01-15T12:12:52;-0.20;99.90
9730;DHT22;4904;49.152;11.004;2024-01-15T12:15:20;-0.20;99.90
9730;DHT22;4904;49.152;11.004;2024-01-15T12:17:47;-0.20;99.90
9730;DHT22;4904;49.152;11.004;2024-01-15T12:20:16;-0.20;99.90
9730;DHT22;4904;49.152;11.004;2024-01-15T12:22:43;-0.20;99.90
9730;DHT22;4904;49.152;11.004;2024-01-15T12:25:11;-0.20;99.90
9730;DHT22;4904;49.152;11.004;2024-01-15T12:27:38;-0.30;99.90
9730;DHT22;4904;49.152;11.004;2024-01-15T12:30:06;-0.30;99.90
9730;DHT22;4904;49.152;11.004;2024-01-15T12:32:34;-0.40;99.90
9730;DHT22;4904;49.152;11.004;2024-01-15T12:35:01;-0.50;99.90
9730;DHT22;4904;49.152;11.004;2024-01-15T12:37:30;-0.60;99.90
9730;DHT22;4904;49.152;11.004;2024-01-15T12:39:59;-0.70;99.90
9730;DHT22;4904;49.152;11.004;2024-01-15T12:42:26;-0.60;99.90
9730;DHT22;4904;49.152;11.004;2024-01-15T12:44:55;-0.70;99.90
9730;DHT22;4904;49.152;11.004;2024-01-15T12:47:23;-0.70;99.90
9730;DHT22;4904;49.152;11.004;2024-01-15T12:49:51;-0.60;99.90
9730;DHT22;4904;49.152;11.004;2024-01-15T12:52:20;-0.70;99.90
9730;DHT22;4904;49.152;11.004;2024-01-15T12:54:49;-0.60;99.90
9730;DHT22;4904;49.152;11.004;2024-01-15T12:57:16;-0.60;99.90
9730;DHT22;4904;49.152;11.004;2024-01-15T12:59:44;-0.60;99.90
9730;DHT22;4904;49.152;11.004;2024-01-15T13:02:11;-0.60;99.90
9730;DHT22;4904;49.152;11.004;2024-01-15T13:04:38;-0.60;99.90
9730;DHT22;4904;49.152;11.004;2024-01-15T13:07:05;-0.60;99.90
9730;DHT22;4904;49.152;11.004;2024-01-15T13:09:32;-0.70;99.90
9730;DHT22;4904;49.152;11.004;2024-01-15T13:11:59;-0.70;99.90
9730;DHT22;4904;49.152;11.004;2024-01-15T13:14:27;-0.70;99.90
9730;DHT22;4904;49.152;11.004;2024-01-15T13:16:54;-0.70;99.90
9730;DHT22;4904;49.152;11.004;2024-01-15T13:19:22;-0.70;99.90
9730;DHT22;4904;49.152;11.004;2024-01-15T13:21:49;-0.70;99.90
9730;DHT22;4904;49.152;11.004;2024-01-15T13:24:16;-0.70;99.90
9730;DHT22;4904;49.152;11.004;2024-01-15T13:26:43;-0.70;99.90
9730;DHT22;4904;49.152;11.004;2024-01-15T13:29:12;-0.70;99.90
9730;DHT22;4904;49.152;11.004;2024-01-15T13:31:39;-0.70;99.90
9730;DHT22;4904;49.152;11.004;2024-01-15T13:34:06;-0.60;99.90
9730;DHT22;4904;49.152;11.004;2024-01-15T13:36:34;-0.60;99.90
9730;DHT22;4904;49.152;11.004;2024-01-15T13:39:04;-0.50;99.90
9730;DHT22;4904;49.152;11.004;2024-01-15T13:41:34;-0.60;99.90
9730;DHT22;4904;49.152;11.004;2024-01-15T13:44:01;-0.60;99.90
9730;DHT22;4904;49.152;11.004;2024-01-15T13:46:29;-0.50;99.90
9730;DHT22;4904;49.152;11.004;2024-01-15T13:48:56;-0.50;99.90
9730;DHT22;4904;49.152;11.004;2024-01-15T13:51:23;-0.50;99.90
9730;DHT22;4904;49.152;11.004;2024-01-15T13:53:50;-0.50;99.90
9730;DHT22;4904;49.152;11.004;2024-01-15T13:56:17;-0.40;99.90
9730;DHT22;4904;49.152;11.004;2024-01-15T13:58:43;-0.40;99.90
9730;DHT22;4904;49.152;11.004;2024-01-15T14:01:11;-0.40;99.90
9730;DHT22;4904;49.152;11.004;2024-01-15T14:03:39;-0.40;99.90
9730;DHT22;4904;49.152;11.004;2024-01-15T14:06:06;-0.40;99.90
9730;DHT22;4904;49.152;11.004;2024-01-15T14:08:36;-0.40;99.90
9730;DHT22;4904;49.152;11.004;2024-01-15T14:11:03;-0.40;99.90
9730;DHT22;4904;49.152;11.004;2024-01-15T14:13:31;-0.40;99.90
9730;DHT22;4904;49.152;11.004;2024-01-15T14:15:58;-0.40;99.90
9730;DHT22;4904;49.152;11.004;2024-01-15T14:18:25;-0.40;99.90
9730;DHT22;4904;49.152;11.004;2024-01-15T14:20:54;-0.40;99.90
9730;DHT22;4904;49.152;11.004;2024-01-15T14:23:20;-0.40;99.90
9730;DHT22;4904;49.152;11.004;2024-01-15T14:25:47;-0.40;99.90
9730;DHT22;4904;49.152;11.004;2024-01-15T14:28:14;-0.40;99.90
9730;DHT22;4904;49.152;11.004;2024-01-15T14:30:41;-0.40;99.90
9730;DHT22;4904;49.152;11.004;2024-01-15T14:33:08;-0.40;99.90
9730;DHT22;4904;49.152;11.004;2024-01-15T14:35:36;-0.30;99.90
9730;DHT22;4904;49.152;11.004;2024-01-15T14:38:04;-0.40;99.90
9730;DHT22;4904;49.152;11.004;2024-01-15T14:40:34;-0.40;99.90
9730;DHT22;4904;49.152;11.004;2024-01-15T14:43:00;-0.40;99.90
9730;DHT22;4904;49.152;11.004;2024-01-15T14:45:27;-0.40;99.90
9730;DHT22;4904;49.152;11.004;2024-01-15T14:47:55;-0.50;99.90
9730;DHT22;4904;49.152;11.004;2024-01-15T14:50:24;-0.50;99.90
9730;DHT22;4904;49.152;11.004;2024-01-15T14:52:50;-0.40;99.90
9730;DHT22;4904;49.152;11.004;2024-01-15T14:55:19;-0.40;99.90
9730;DHT22;4904;49.152;11.004;2024-01-15T14:57:46;-0.40;99.90
9730;DHT22;4904;49.152;11.004;2024-01-15T15:00:13;-0.40;99.90
9730;DHT22;4904;49.152;11.004;2024-01-15T15:02:42;-0.40;99.90
9730;DHT22;4904;49.152;11.004;2024-01-15T15:05:09;-0.40;99.90
9730;DHT22;4904;49.152;11.004;2024-01-15T15:07:38;-0.30;99.90
9730;DHT22;4904;49.152;11.004;2024-01-15T15:10:06;-0.30;99.90
9730;DHT22;4904;49.152;11.004;2024-01-15T15:12:35;-0.40;99.90
9730;DHT22;4904;49.152;11.004;2024-01-15T15:15:02;-0.30;99.90
9730;DHT22;4904;49.152;11.004;2024-01-15T15:17:29;-0.30;99.90
9730;DHT22;4904;49.152;11.004;2024-01-15T15:19:55;-0.30;99.90
9730;DHT22;4904;49.152;11.004;2024-01-15T15:22:22;-0.30;99.90
9730;DHT22;4904;49.152;11.004;2024-01-15T15:24:49;-0.30;99.90
9730;DHT22;4904;49.152;11.004;2024-01-15T15:27:16;-0.40;99.90
9730;DHT22;4904;49.152;11.004;2024-01-15T15:29:44;-0.40;99.90
9730;DHT22;4904;49.152;11.004;2024-01-15T15:32:13;-0.40;99.90
9730;DHT22;4904;49.152;11.004;2024-01-15T15:34:40;-0.30;99.90
9730;DHT22;4904;49.152;11.004;2024-01-15T15:37:07;-0.40;99.90
9730;DHT22;4904;49.152;11.004;2024-01-15T15:39:34;-0.40;99.90
9730;DHT22;4904;49.152;11.004;2024-01-15T15:42:00;-0.40;99.90
9730;DHT22;4904;49.152;11.004;2024-01-15T15:44:28;-0.50;99.90
9730;DHT22;4904;49.152;11.004;2024-01-15T15:46:56;-0.50;99.90
9730;DHT22;4904;49.152;11.004;2024-01-15T15:49:23;-0.50;99.90